createdAt,value
2023-04-10T00:01:55.401Z,46.15
2023-04-10T00:03:57.698Z,46.02
2023-04-10T00:06:01.715Z,46.20
2023-04-10T00:08:03.428Z,46.06
2023-04-10T00:10:05.285Z,46.09
2023-04-10T00:12:07.044Z,46.10
2023-04-10T00:14:08.570Z,46.23
2023-04-10T00:16:11.152Z,46.14
2023-04-10T00:18:12.710Z,46.18
2023-04-10T00:20:14.150Z,46.21
2023-04-10T00:22:15.897Z,46.27
2023-04-10T00:24:21.543Z,46.44
2023-04-10T00:26:26.832Z,46.40
2023-04-10T00:28:28.293Z,46.17
2023-04-10T00:30:29.785Z,46.39
2023-04-10T00:32:31.242Z,46.52
2023-04-10T00:34:32.985Z,46.47
2023-04-10T00:36:35.159Z,46.49
2023-04-10T00:38:38.075Z,46.42
2023-04-10T00:40:39.488Z,46.50
2023-04-10T00:42:41.635Z,46.59
2023-04-10T00:44:43.874Z,46.68
2023-04-10T00:46:45.707Z,46.67
2023-04-10T00:48:47.638Z,46.72
2023-04-10T00:50:49.380Z,46.78
2023-04-10T00:52:51.570Z,47.06
2023-04-10T00:54:53.152Z,47.07
2023-04-10T00:56:57.339Z,47.06
2023-04-10T00:59:00.255Z,46.91
2023-04-10T01:01:03.894Z,47.09
2023-04-10T01:03:05.530Z,46.84
2023-04-10T01:05:09.203Z,47.00
2023-04-10T01:07:33.205Z,47.30
2023-04-10T01:09:49.652Z,47.40
2023-04-10T01:12:00.370Z,46.98
2023-04-10T01:14:27.896Z,47.05
2023-04-10T01:16:41.415Z,47.16
2023-04-10T01:18:57.374Z,47.32
2023-04-10T01:21:02.301Z,47.08
2023-04-10T01:23:12.850Z,46.97
2023-04-10T01:25:51.767Z,47.32
2023-04-10T01:28:40.451Z,47.26
2023-04-10T01:30:43.645Z,47.06
2023-04-10T01:32:45.931Z,47.10
2023-04-10T01:34:50.964Z,47.25
2023-04-10T01:36:59.716Z,47.34
2023-04-10T01:39:02.562Z,47.36
2023-04-10T01:41:05.973Z,47.46
2023-04-10T01:43:10.324Z,47.51
2023-04-10T01:45:29.381Z,47.87
2023-04-10T01:47:34.200Z,47.43
2023-04-10T01:49:42.467Z,47.36
2023-04-10T01:51:46.421Z,47.58
2023-04-10T01:53:52.383Z,47.71
2023-04-10T01:55:59.900Z,47.57
2023-04-10T01:58:01.668Z,47.37
2023-04-10T02:00:04.489Z,47.53
2023-04-10T02:02:19.151Z,47.41
2023-04-10T02:04:20.999Z,47.74
2023-04-10T02:06:45.177Z,47.82
2023-04-10T02:08:58.926Z,48.07
2023-04-10T02:11:29.534Z,48.02
2023-04-10T02:13:34.323Z,47.98
2023-04-10T02:15:40.144Z,47.90
2023-04-10T02:17:44.959Z,48.05
2023-04-10T02:19:48.288Z,47.99
2023-04-10T02:21:51.477Z,48.31
2023-04-10T02:23:53.487Z,48.00
2023-04-10T02:26:00.321Z,48.34
2023-04-10T02:28:06.013Z,48.28
2023-04-10T02:30:10.444Z,48.26
2023-04-10T02:32:12.599Z,48.23
2023-04-10T02:34:14.099Z,48.18
2023-04-10T02:36:15.867Z,48.08
2023-04-10T02:38:17.520Z,48.10
2023-04-10T02:40:18.993Z,48.14
2023-04-10T02:42:27.807Z,48.23
2023-04-10T02:44:33.293Z,48.18
2023-04-10T02:46:35.058Z,48.03
2023-04-10T02:48:37.128Z,47.68
2023-04-10T02:50:38.882Z,47.71
2023-04-10T02:52:43.844Z,47.88
2023-04-10T02:54:48.349Z,47.86
2023-04-10T02:56:49.934Z,48.09
2023-04-10T02:58:51.511Z,48.10
2023-04-10T03:00:53.176Z,48.36
2023-04-10T03:03:14.294Z,48.32
2023-04-10T03:05:21.279Z,48.39
2023-04-10T03:07:23.115Z,48.50
2023-04-10T03:09:24.773Z,48.24
2023-04-10T03:11:26.970Z,48.40
2023-04-10T03:13:28.755Z,48.51
2023-04-10T03:15:31.582Z,48.59
2023-04-10T03:17:33.816Z,48.70
2023-04-10T03:19:35.336Z,48.88
2023-04-10T03:21:39.751Z,48.78
2023-04-10T03:23:41.376Z,48.57
2023-04-10T03:25:43.364Z,48.94
2023-04-10T03:27:45.797Z,48.51
2023-04-10T03:29:47.181Z,48.57
2023-04-10T03:31:51.767Z,49.00
2023-04-10T03:33:56.430Z,48.63
2023-04-10T03:35:58.346Z,48.85
2023-04-10T03:38:03.334Z,48.61
2023-04-10T03:40:07.702Z,48.96
2023-04-10T03:42:09.828Z,48.78
2023-04-10T03:44:12.399Z,48.78
2023-04-10T03:46:14.043Z,48.69
2023-04-10T03:48:19.004Z,48.84
2023-04-10T03:50:39.277Z,48.85
2023-04-10T03:52:42.925Z,48.76
2023-04-10T03:54:49.217Z,49.16
2023-04-10T03:57:00.011Z,48.96
2023-04-10T03:59:02.284Z,49.15
2023-04-10T04:01:05.269Z,49.07
2023-04-10T04:03:14.124Z,49.31
2023-04-10T04:05:28.370Z,49.23
2023-04-10T04:07:55.685Z,49.03
2023-04-10T04:10:12.229Z,49.29
2023-04-10T04:12:28.278Z,49.23
2023-04-10T04:14:51.014Z,49.18
2023-04-10T04:16:52.715Z,49.42
2023-04-10T04:19:11.691Z,49.28
2023-04-10T04:21:22.160Z,49.15
2023-04-10T04:23:41.047Z,49.33
2023-04-10T04:26:09.049Z,49.26
2023-04-10T04:28:30.331Z,49.50
2023-04-10T04:30:54.843Z,49.57
2023-04-10T04:33:18.359Z,49.44
2023-04-10T04:35:43.158Z,49.67
2023-04-10T04:37:52.416Z,49.60
2023-04-10T04:40:12.425Z,49.54
2023-04-10T04:42:35.003Z,49.42
2023-04-10T04:45:02.394Z,49.76
2023-04-10T04:47:28.982Z,49.60
2023-04-10T04:49:54.262Z,49.56
2023-04-10T04:52:04.034Z,50.00
2023-04-10T04:54:28.610Z,49.89
2023-04-10T04:56:51.598Z,50.17
2023-04-10T04:59:01.180Z,50.03
2023-04-10T05:01:09.511Z,49.73
2023-04-10T05:03:28.849Z,50.03
2023-04-10T05:05:43.364Z,49.99
2023-04-10T05:07:56.166Z,50.02
2023-04-10T05:10:26.222Z,50.12
2023-04-10T05:12:45.976Z,50.12
2023-04-10T05:14:57.807Z,50.24
2023-04-10T05:17:19.073Z,50.04
2023-04-10T05:19:30.563Z,49.95
2023-04-10T05:22:01.121Z,50.08
2023-04-10T05:24:25.998Z,50.26
2023-04-10T05:26:57.673Z,50.28
2023-04-10T05:29:16.568Z,50.07
2023-04-10T05:31:33.498Z,50.02
2023-04-10T05:33:46.375Z,50.40
2023-04-10T05:36:00.712Z,50.43
2023-04-10T05:38:12.061Z,50.47
2023-04-10T05:40:21.398Z,50.39
2023-04-10T05:42:46.336Z,50.66
2023-04-10T05:45:22.743Z,50.69
2023-04-10T05:47:24.311Z,50.76
2023-04-10T05:49:44.333Z,50.61
2023-04-10T05:52:00.212Z,50.87
2023-04-10T05:54:21.997Z,50.92
2023-04-10T05:56:40.468Z,50.83
2023-04-10T05:59:00.873Z,50.91
2023-04-10T06:01:21.191Z,50.90
2023-04-10T06:03:33.912Z,51.09
2023-04-10T06:05:37.020Z,51.15
2023-04-10T06:07:41.926Z,51.09
2023-04-10T06:09:43.339Z,51.13
2023-04-10T06:11:45.713Z,51.15
2023-04-10T06:13:51.273Z,51.19
2023-04-10T06:15:53.129Z,51.04
2023-04-10T06:17:55.669Z,51.21
2023-04-10T06:19:59.460Z,51.31
2023-04-10T06:22:01.437Z,51.29
2023-04-10T06:24:03.882Z,51.14
2023-04-10T06:26:05.658Z,51.22
2023-04-10T06:28:07.427Z,51.08
2023-04-10T06:30:09.431Z,51.17
2023-04-10T06:32:10.974Z,51.08
2023-04-10T06:34:14.775Z,50.80
2023-04-10T06:36:29.749Z,50.53
2023-04-10T06:38:38.416Z,50.60
2023-04-10T06:40:43.424Z,50.56
2023-04-10T06:42:47.298Z,50.43
2023-04-10T06:44:56.928Z,50.21
2023-04-10T06:46:58.627Z,50.03
2023-04-10T06:49:00.307Z,49.88
2023-04-10T06:51:01.935Z,49.76
2023-04-10T06:53:03.516Z,49.43
2023-04-10T06:55:05.866Z,49.53
2023-04-10T06:57:07.284Z,49.35
2023-04-10T06:59:08.774Z,49.37
2023-04-10T07:01:10.510Z,48.93
2023-04-10T07:03:18.108Z,48.77
2023-04-10T07:05:19.549Z,48.73
2023-04-10T07:07:21.351Z,48.67
2023-04-10T07:09:23.232Z,48.57
2023-04-10T07:11:31.806Z,48.49
2023-04-10T07:13:42.587Z,48.19
2023-04-10T07:15:53.124Z,48.04
2023-04-10T07:17:57.690Z,47.56
2023-04-10T07:20:06.442Z,47.76
2023-04-10T07:22:09.311Z,47.55
2023-04-10T07:24:13.776Z,47.30
2023-04-10T07:26:15.583Z,47.18
2023-04-10T07:28:19.224Z,46.91
2023-04-10T07:30:20.987Z,47.07
2023-04-10T07:32:23.443Z,46.92
2023-04-10T07:34:28.380Z,46.63
2023-04-10T07:36:35.659Z,46.48
2023-04-10T07:38:44.679Z,46.41
2023-04-10T07:40:46.429Z,46.61
2023-04-10T07:42:52.029Z,46.52
2023-04-10T07:44:54.810Z,46.00
2023-04-10T07:46:59.358Z,45.91
2023-04-10T07:49:04.300Z,45.60
2023-04-10T07:51:09.834Z,45.96
2023-04-10T07:53:11.541Z,45.28
2023-04-10T07:55:13.024Z,45.35
2023-04-10T07:57:17.451Z,44.95
2023-04-10T07:59:18.997Z,45.08
2023-04-10T08:01:20.907Z,44.57
2023-04-10T08:03:45.811Z,44.00
2023-04-10T08:05:47.906Z,44.58
2023-04-10T08:07:49.344Z,44.18
2023-04-10T08:09:52.454Z,43.81
2023-04-10T08:12:02.046Z,43.69
2023-04-10T08:14:05.884Z,43.14
2023-04-10T08:16:13.390Z,43.08
2023-04-10T08:18:15.318Z,43.34
2023-04-10T08:20:19.308Z,43.15
2023-04-10T08:22:26.759Z,42.47
2023-04-10T08:24:31.880Z,42.52
2023-04-10T08:26:33.543Z,42.24
2023-04-10T08:28:36.380Z,42.03
2023-04-10T08:30:44.205Z,42.10
2023-04-10T08:32:50.297Z,42.13
2023-04-10T08:35:00.772Z,42.08
2023-04-10T08:37:06.542Z,41.15
2023-04-10T08:39:08.047Z,41.33
2023-04-10T08:41:15.533Z,40.78
2023-04-10T08:43:20.321Z,40.96
2023-04-10T08:45:22.459Z,41.17
2023-04-10T08:47:28.083Z,41.32
2023-04-10T08:49:47.701Z,40.94
2023-04-10T08:51:56.288Z,40.87
2023-04-10T08:54:06.743Z,40.63
2023-04-10T08:56:12.078Z,40.73
2023-04-10T08:58:16.695Z,40.86
2023-04-10T09:00:23.293Z,40.88
2023-04-10T09:02:25.443Z,40.30
2023-04-10T09:04:31.932Z,40.41
2023-04-10T09:06:33.575Z,40.29
2023-04-10T09:08:43.371Z,40.46
2023-04-10T09:10:47.094Z,40.43
2023-04-10T09:12:49.163Z,40.36
2023-04-10T09:14:53.352Z,40.31
2023-04-10T09:17:20.112Z,40.26
2023-04-10T09:19:32.302Z,39.89
2023-04-10T09:21:36.307Z,40.04
2023-04-10T09:23:45.593Z,39.91
2023-04-10T09:25:48.747Z,39.85
2023-04-10T09:28:05.970Z,39.29
2023-04-10T09:30:08.497Z,39.51
2023-04-10T09:32:12.682Z,39.63
2023-04-10T09:34:15.359Z,39.25
2023-04-10T09:36:18.523Z,38.74
2023-04-10T09:38:25.914Z,38.72
2023-04-10T09:40:30.391Z,38.48
2023-04-10T09:42:38.952Z,38.07
2023-04-10T09:44:41.423Z,37.91
2023-04-10T09:46:43.122Z,38.01
2023-04-10T09:48:59.381Z,38.00
2023-04-10T09:51:01.134Z,38.09
2023-04-10T09:53:02.582Z,38.25
2023-04-10T09:55:06.051Z,38.20
2023-04-10T09:57:11.409Z,38.36
2023-04-10T09:59:14.395Z,38.03
2023-04-10T10:01:35.415Z,37.91
2023-04-10T10:03:55.364Z,37.41
2023-04-10T10:05:57.010Z,37.53
2023-04-10T10:07:58.645Z,37.60
2023-04-10T10:10:03.647Z,37.69
2023-04-10T10:12:09.194Z,37.79
2023-04-10T10:14:18.627Z,37.17
2023-04-10T10:16:49.559Z,37.50
2023-04-10T10:19:12.863Z,36.91
2023-04-10T10:21:19.120Z,37.43
2023-04-10T10:23:22.394Z,37.28
2023-04-10T10:25:26.691Z,36.33
2023-04-10T10:27:34.478Z,36.31
2023-04-10T10:29:41.047Z,36.31
2023-04-10T10:31:50.157Z,36.23
2023-04-10T10:33:52.964Z,36.06
2023-04-10T10:35:57.936Z,35.79
2023-04-10T10:38:02.857Z,35.30
2023-04-10T10:40:28.724Z,35.41
2023-04-10T10:43:04.534Z,34.93
2023-04-10T10:45:19.175Z,35.71
2023-04-10T10:47:27.456Z,35.10
2023-04-10T10:50:01.569Z,34.45
2023-04-10T10:52:03.076Z,35.56
2023-04-10T10:54:34.476Z,35.27
2023-04-10T10:56:43.653Z,35.32
2023-04-10T10:58:54.504Z,34.64
2023-04-10T11:00:59.239Z,34.57
2023-04-10T11:03:10.722Z,34.07
2023-04-10T11:05:51.423Z,33.92
2023-04-10T11:07:59.254Z,33.97
2023-04-10T11:10:04.376Z,34.24
2023-04-10T11:12:07.786Z,33.18
2023-04-10T11:14:09.325Z,33.41
2023-04-10T11:16:11.242Z,33.04
2023-04-10T11:18:12.764Z,33.37
2023-04-10T11:20:14.414Z,34.16
2023-04-10T11:22:18.770Z,33.87
2023-04-10T11:26:48.558Z,34.04
2023-04-10T11:28:50.148Z,33.71
2023-04-10T11:30:51.586Z,33.81
2023-04-10T11:33:05.441Z,33.42
2023-04-10T11:35:07.348Z,33.62
2023-04-10T11:37:08.761Z,33.13
2023-04-10T11:39:22.342Z,32.80
2023-04-10T11:41:32.127Z,31.67
2023-04-10T11:43:39.287Z,32.66
2023-04-10T11:45:41.144Z,32.57
2023-04-10T11:47:51.896Z,32.05
2023-04-10T11:49:55.828Z,33.07
2023-04-10T11:51:59.322Z,32.76
2023-04-10T11:54:07.013Z,32.75
2023-04-10T11:56:23.762Z,32.12
2023-04-10T11:58:32.096Z,32.81
2023-04-10T12:00:56.218Z,32.09
2023-04-10T12:03:01.926Z,32.51
2023-04-10T12:05:03.925Z,32.35
2023-04-10T12:07:05.483Z,31.98
2023-04-10T12:09:30.585Z,32.13
2023-04-10T12:11:34.706Z,32.14
2023-04-10T12:13:52.207Z,31.62
2023-04-10T12:15:54.460Z,31.96
2023-04-10T12:17:59.169Z,31.41
2023-04-10T12:20:05.863Z,31.38
2023-04-10T12:22:12.129Z,31.59
2023-04-10T12:24:33.655Z,31.78
2023-04-10T12:26:35.604Z,31.57
2023-04-10T12:28:38.766Z,31.15
2023-04-10T12:30:46.978Z,31.00
2023-04-10T12:33:02.566Z,30.35
2023-04-10T12:35:12.826Z,30.58
2023-04-10T12:37:14.268Z,31.06
2023-04-10T12:39:24.985Z,30.32
2023-04-10T12:41:33.313Z,30.58
2023-04-10T12:43:37.637Z,30.21
2023-04-10T12:45:45.806Z,30.12
2023-04-10T12:48:00.721Z,29.95
2023-04-10T12:52:41.751Z,29.86
2023-04-10T12:54:49.107Z,30.41
2023-04-10T12:56:51.458Z,30.84
2023-04-10T12:59:07.077Z,29.71
2023-04-10T13:01:11.636Z,30.48
2023-04-10T13:03:13.281Z,30.67
2023-04-10T13:05:15.581Z,30.88
2023-04-10T13:07:17.400Z,30.62
2023-04-10T13:09:20.177Z,30.81
2023-04-10T13:11:24.648Z,30.77
2023-04-10T13:13:31.517Z,31.11
2023-04-10T13:15:42.284Z,30.25
2023-04-10T13:17:43.966Z,30.83
2023-04-10T13:19:53.578Z,30.96
2023-04-10T13:21:55.211Z,31.31
2023-04-10T13:24:00.229Z,31.35
2023-04-10T13:26:02.220Z,30.98
2023-04-10T13:28:11.504Z,31.20
2023-04-10T13:30:13.516Z,31.52
2023-04-10T13:32:15.520Z,31.22
2023-04-10T13:34:17.100Z,31.28
2023-04-10T13:36:18.665Z,31.55
2023-04-10T13:38:21.424Z,30.75
2023-04-10T13:40:23.180Z,30.96
2023-04-10T13:42:40.581Z,31.22
2023-04-10T13:44:46.155Z,31.63
2023-04-10T13:46:47.879Z,31.47
2023-04-10T13:51:51.230Z,31.06
2023-04-10T13:53:52.899Z,30.80
2023-04-10T13:55:59.774Z,30.98
2023-04-10T13:58:07.235Z,31.27
2023-04-10T14:00:10.154Z,31.02
2023-04-10T14:02:14.679Z,31.45
2023-04-10T14:04:16.596Z,31.09
2023-04-10T14:06:18.409Z,31.14
2023-04-10T14:08:20.736Z,31.01
2023-04-10T14:10:31.072Z,31.01
2023-04-10T14:12:32.700Z,31.09
2023-04-10T14:14:34.495Z,31.21
2023-04-10T14:16:36.152Z,30.79
2023-04-10T14:18:37.678Z,30.88
2023-04-10T14:20:42.229Z,30.62
2023-04-10T14:22:43.761Z,30.08
2023-04-10T14:24:45.467Z,30.12
2023-04-10T14:26:49.770Z,29.88
2023-04-10T14:28:55.666Z,29.63
2023-04-10T14:30:57.898Z,29.91
2023-04-10T14:32:59.935Z,30.18
2023-04-10T14:35:01.637Z,30.00
2023-04-10T14:37:03.346Z,29.19
2023-04-10T14:39:05.048Z,29.75
2023-04-10T14:41:06.896Z,29.89
2023-04-10T14:43:11.318Z,28.93
2023-04-10T14:45:15.376Z,28.95
2023-04-10T14:47:16.838Z,29.20
2023-04-10T14:49:18.304Z,29.21
2023-04-10T14:51:30.062Z,29.66
2023-04-10T14:53:31.558Z,29.03
2023-04-10T14:55:42.110Z,29.08
2023-04-10T14:57:43.701Z,29.11
2023-04-10T14:59:45.385Z,29.18
2023-04-10T15:01:47.182Z,29.17
2023-04-10T15:03:49.197Z,29.27
2023-04-10T15:05:58.937Z,29.25
2023-04-10T15:08:00.759Z,29.77
2023-04-10T15:10:02.508Z,29.12
2023-04-10T15:12:04.367Z,28.96
2023-04-10T15:14:05.848Z,29.60
2023-04-10T15:16:08.080Z,29.44
2023-04-10T15:18:09.656Z,29.97
2023-04-10T15:20:11.841Z,29.81
2023-04-10T15:22:13.487Z,30.25
2023-04-10T15:24:21.070Z,29.68
2023-04-10T15:26:23.173Z,30.25
2023-04-10T15:28:30.183Z,30.50
2023-04-10T15:30:31.647Z,30.07
2023-04-10T15:32:33.304Z,30.29
2023-04-10T15:34:34.843Z,30.21
2023-04-10T15:36:36.367Z,30.21
2023-04-10T15:38:38.420Z,30.51
2023-04-10T15:40:39.924Z,30.77
2023-04-10T15:42:41.386Z,30.68
2023-04-10T15:44:49.038Z,30.34
2023-04-10T15:46:51.079Z,30.46
2023-04-10T15:48:52.697Z,30.44
2023-04-10T15:50:54.279Z,30.31
2023-04-10T15:52:55.897Z,30.72
2023-04-10T15:55:00.815Z,30.67
2023-04-10T15:57:03.347Z,30.48
2023-04-10T15:59:07.956Z,30.53
2023-04-10T16:01:09.594Z,30.67
2023-04-10T16:03:13.953Z,30.75
2023-04-10T16:05:15.717Z,30.79
2023-04-10T16:07:17.665Z,31.03
2023-04-10T16:11:23.754Z,31.05
2023-04-10T16:13:25.303Z,31.31
2023-04-10T16:15:28.422Z,31.27
2023-04-10T16:17:30.420Z,31.11
2023-04-10T16:19:31.990Z,31.47
2023-04-10T16:21:33.387Z,31.66
2023-04-10T16:23:34.789Z,31.74
2023-04-10T16:25:36.679Z,31.95
2023-04-10T16:27:38.149Z,31.96
2023-04-10T16:29:42.323Z,31.92
2023-04-10T16:31:45.211Z,31.76
2023-04-10T16:33:46.720Z,31.91
2023-04-10T16:35:51.244Z,31.83
2023-04-10T16:37:53.491Z,32.01
2023-04-10T17:38:30.567Z,34.74
2023-04-10T17:40:32.108Z,35.13
2023-04-10T17:42:33.677Z,35.01
2023-04-10T17:44:35.376Z,35.42
2023-04-10T17:46:36.944Z,35.10
2023-04-10T17:48:39.123Z,35.05
2023-04-10T17:50:40.975Z,35.38
2023-04-10T17:52:44.528Z,35.09
2023-04-10T17:54:49.292Z,35.10
2023-04-10T17:56:52.639Z,35.18
2023-04-10T17:58:58.968Z,35.56
2023-04-10T18:01:01.346Z,35.86
2023-04-10T18:03:03.290Z,36.03
2023-04-10T18:05:09.901Z,35.98
2023-04-10T18:07:11.602Z,35.57
2023-04-10T18:09:13.503Z,35.44
2023-04-10T18:11:15.237Z,35.81
2023-04-10T18:13:19.676Z,35.94
2023-04-10T18:15:21.181Z,35.74
2023-04-10T18:17:22.800Z,35.83
2023-04-10T18:19:24.469Z,36.12
2023-04-10T18:21:29.046Z,35.52
2023-04-10T18:23:31.222Z,35.56
2023-04-10T18:25:32.900Z,35.22
2023-04-10T18:27:36.216Z,34.55
2023-04-10T18:29:38.036Z,34.72
2023-04-10T18:31:39.623Z,35.08
2023-04-10T18:33:41.304Z,35.19
2023-04-10T18:35:43.467Z,34.98
2023-04-10T18:37:47.870Z,34.88
2023-04-10T18:39:49.449Z,35.10
2023-04-10T18:41:51.009Z,34.77
2023-04-10T18:44:01.830Z,34.90
2023-04-10T18:46:08.662Z,34.92
2023-04-10T18:48:10.373Z,35.32
2023-04-10T18:50:11.960Z,34.90
2023-04-10T18:52:13.627Z,34.72
2023-04-10T18:54:15.097Z,34.77
2023-04-10T18:56:16.865Z,34.91
2023-04-10T18:58:19.542Z,34.60
2023-04-10T19:00:21.291Z,34.62
2023-04-10T19:02:22.924Z,34.91
2023-04-10T19:04:24.834Z,34.63
2023-04-10T19:06:26.943Z,35.11
2023-04-10T19:08:28.621Z,34.78
2023-04-10T19:12:30.740Z,34.88
2023-04-10T19:14:35.824Z,34.67
2023-04-10T19:16:37.666Z,34.80
2023-04-10T19:18:42.107Z,34.71
2023-04-10T19:20:51.171Z,34.80
2023-04-10T19:22:54.250Z,34.74
2023-04-10T19:24:55.830Z,34.82
2023-04-10T19:26:57.499Z,35.14
2023-04-10T19:28:59.185Z,35.05
2023-04-10T19:31:01.046Z,35.43
2023-04-10T19:33:02.730Z,35.35
2023-04-10T19:35:04.697Z,35.42
2023-04-10T19:37:06.352Z,35.87
2023-04-10T19:39:08.694Z,35.79
2023-04-10T19:41:17.260Z,35.34
2023-04-10T19:43:18.880Z,35.57
2023-04-10T19:45:22.128Z,35.85
2023-04-10T19:47:23.735Z,36.00
2023-04-10T19:49:27.248Z,35.90
2023-04-10T19:51:30.135Z,35.79
2023-04-10T19:53:31.926Z,36.07
2023-04-10T19:55:34.304Z,36.25
2023-04-10T19:57:35.913Z,35.94
2023-04-10T19:59:37.540Z,35.75
2023-04-10T20:01:39.046Z,35.72
2023-04-10T20:03:40.738Z,35.58
2023-04-10T20:05:42.869Z,36.00
2023-04-10T20:07:44.361Z,36.01
2023-04-10T20:09:46.066Z,36.10
2023-04-10T20:11:47.593Z,36.31
2023-04-10T20:13:49.170Z,36.36
2023-04-10T20:15:51.051Z,36.70
2023-04-10T20:17:52.630Z,36.30
2023-04-10T20:19:55.045Z,36.44
2023-04-10T20:21:56.821Z,36.58
2023-04-10T20:23:58.352Z,36.66
2023-04-10T20:25:59.868Z,36.46
2023-04-10T20:28:01.493Z,36.54
2023-04-10T20:30:03.466Z,36.47
2023-04-10T20:32:08.099Z,36.61
2023-04-10T20:34:18.633Z,36.88
2023-04-10T20:36:20.946Z,36.53
2023-04-10T20:38:22.442Z,36.48
2023-04-10T20:40:23.879Z,36.45
2023-04-10T20:42:25.369Z,36.05
2023-04-10T20:44:26.837Z,36.20
2023-04-10T20:46:29.359Z,36.31
2023-04-10T20:48:34.221Z,36.12
2023-04-10T20:50:37.028Z,36.65
2023-04-10T20:52:39.701Z,36.34
2023-04-10T20:54:41.325Z,36.35
2023-04-10T20:56:44.034Z,36.46
2023-04-10T20:58:45.818Z,36.85
2023-04-10T21:00:47.542Z,36.95
2023-04-10T21:02:49.096Z,36.87
2023-04-10T21:04:52.101Z,37.08
2023-04-10T21:06:53.762Z,36.96
2023-04-10T21:08:57.794Z,37.06
2023-04-10T21:10:59.508Z,37.02
2023-04-10T21:13:03.826Z,37.20
2023-04-10T21:15:05.830Z,37.09
2023-04-10T21:17:07.376Z,37.03
2023-04-10T21:19:09.301Z,36.94
2023-04-10T21:21:10.920Z,37.22
2023-04-10T21:23:14.728Z,37.20
2023-04-10T21:25:19.178Z,37.17
2023-04-10T21:27:21.015Z,37.38
2023-04-10T21:29:22.753Z,37.16
2023-04-10T21:31:24.469Z,37.11
2023-04-10T21:33:26.009Z,36.67
2023-04-10T21:35:30.564Z,36.61
2023-04-10T21:37:32.074Z,36.34
2023-04-10T21:39:33.726Z,36.23
2023-04-10T21:41:38.608Z,35.70
2023-04-10T21:43:40.112Z,36.02
2023-04-10T21:45:42.798Z,36.08
2023-04-10T21:47:44.354Z,36.18
2023-04-10T21:49:45.894Z,36.45
2023-04-10T21:51:47.526Z,36.79
2023-04-10T21:53:49.064Z,36.85
2023-04-10T21:55:50.654Z,36.99
2023-04-10T21:57:52.091Z,37.00
2023-04-10T21:59:53.522Z,37.11
2023-04-10T22:01:58.664Z,37.48
2023-04-10T22:04:00.408Z,37.39
2023-04-10T22:06:02.019Z,37.12
2023-04-10T22:08:03.658Z,37.43
2023-04-10T22:10:05.858Z,37.46
2023-04-10T22:12:07.472Z,37.91
2023-04-10T22:14:17.270Z,37.67
2023-04-10T22:16:20.356Z,37.73
2023-04-10T22:18:21.990Z,37.70
2023-04-10T22:20:26.142Z,37.86
2023-04-10T22:22:27.954Z,37.98
2023-04-10T22:24:33.844Z,37.62
2023-04-10T22:26:35.650Z,37.73
2023-04-10T22:28:38.478Z,37.92
2023-04-10T22:30:40.010Z,37.86
2023-04-10T22:32:41.607Z,38.23
2023-04-10T22:34:43.117Z,38.09
2023-04-10T22:36:47.002Z,38.17
2023-04-10T22:38:48.475Z,38.07
2023-04-10T22:40:49.949Z,38.28
2023-04-10T22:42:52.928Z,38.35
2023-04-10T22:44:54.635Z,38.46
2023-04-10T22:46:56.320Z,38.57
2023-04-10T22:48:57.946Z,38.73
2023-04-10T22:51:01.413Z,39.00
2023-04-10T22:53:02.968Z,38.81
2023-04-10T22:55:06.789Z,38.76
2023-04-10T22:57:08.309Z,38.90
2023-04-10T22:59:10.463Z,38.95
2023-04-10T23:01:12.167Z,39.01
2023-04-10T23:03:16.111Z,39.16
2023-04-10T23:05:17.778Z,39.09
2023-04-10T23:07:19.286Z,39.08
2023-04-10T23:09:20.741Z,39.21
2023-04-10T23:11:22.259Z,39.39
2023-04-10T23:13:23.925Z,39.21
2023-04-10T23:15:25.461Z,39.17
2023-04-10T23:17:27.026Z,39.61
2023-04-10T23:19:28.529Z,39.59
2023-04-10T23:21:30.219Z,39.73
2023-04-10T23:23:31.725Z,39.85
2023-04-10T23:25:33.281Z,40.09
2023-04-10T23:27:34.811Z,40.50
2023-04-10T23:29:36.350Z,40.38
2023-04-10T23:31:37.815Z,40.42
2023-04-10T23:33:39.435Z,40.56
2023-04-10T23:35:41.060Z,40.38
2023-04-10T23:37:42.622Z,40.02
2023-04-10T23:39:44.036Z,39.55
2023-04-10T23:41:45.565Z,39.67
2023-04-10T23:43:47.270Z,39.55
2023-04-10T23:45:50.815Z,39.54
2023-04-10T23:47:52.855Z,39.44
2023-04-10T23:49:55.256Z,39.42
2023-04-10T23:51:56.917Z,39.45
2023-04-10T23:53:58.801Z,39.41
2023-04-10T23:56:00.955Z,39.42
2023-04-10T23:58:03.501Z,39.44
